Time;durP1;ratioP1;P1;durP2;ratioP2;P2;SDS_P1;SDS_P2;PMS_P1;PMS_P2;Temp;Humidity;BMP_temperature;BMP_pressure;BME280_temperature;BME280_humidity;BME280_pressure;Samples;Min_cycle;Max_cycle;Signal;HPM_P1;HPM_P2
2023/04/10 00:00:38;;;;;;;7.67;5.17;;;;;;;12.25;54.67;94700.69;5030271;28;20191;-52
2023/04/10 00:03:05;;;;;;;5.57;5.07;;;;;;;12.19;54.89;94691.03;5044637;28;20240;-54
2023/04/10 00:05:32;;;;;;;6.70;5.17;;;;;;;12.27;54.70;94700.56;5049583;28;20187;-54
2023/04/10 00:07:59;;;;;;;5.67;5.13;;;;;;;12.29;54.75;94704.56;5049936;28;20278;-54
2023/04/10 00:10:28;;;;;;;5.27;4.77;;;;;;;12.24;54.92;94688.03;5049099;28;20214;-53
2023/04/10 00:12:55;;;;;;;5.73;5.17;;;;;;;12.23;54.60;94691.56;5049979;28;20241;-55
2023/04/10 00:15:24;;;;;;;5.83;5.23;;;;;;;12.29;54.48;94698.63;5049888;28;20187;-54
2023/04/10 00:17:53;;;;;;;5.20;4.80;;;;;;;12.29;54.26;94690.94;5049953;28;20670;-52
2023/04/10 00:20:21;;;;;;;4.93;4.43;;;;;;;12.26;54.08;94689.50;5049420;28;20183;-54
2023/04/10 00:22:47;;;;;;;5.57;5.07;;;;;;;12.29;54.32;94696.06;5049835;28;20277;-53
2023/04/10 00:25:14;;;;;;;5.30;4.80;;;;;;;12.28;54.08;94684.22;5049515;28;20191;-54
2023/04/10 00:27:41;;;;;;;6.10;5.53;;;;;;;12.28;53.90;94692.72;5049726;28;20187;-53
2023/04/10 00:30:08;;;;;;;4.73;4.33;;;;;;;12.29;53.82;94686.63;5049308;28;20221;-53
2023/04/10 00:32:37;;;;;;;5.33;4.83;;;;;;;12.25;53.61;94679.38;5049376;28;20198;-54
2023/04/10 00:35:04;;;;;;;5.13;4.60;;;;;;;12.26;53.49;94679.25;5049368;28;20575;-53
2023/04/10 00:37:31;;;;;;;4.93;4.43;;;;;;;12.28;53.30;94681.66;5049453;28;20190;-54
2023/04/10 00:39:58;;;;;;;4.77;4.37;;;;;;;12.26;53.23;94686.94;5049484;28;20195;-53
2023/04/10 00:42:25;;;;;;;7.43;4.80;;;;;;;12.26;53.04;94681.81;5049217;28;20662;-54
2023/04/10 00:44:52;;;;;;;5.63;4.77;;;;;;;12.23;52.87;94676.97;5049345;28;20190;-51
2023/04/10 00:47:18;;;;;;;5.10;4.60;;;;;;;12.24;52.75;94683.69;5048881;28;20187;-52
2023/04/10 00:49:47;;;;;;;5.87;4.90;;;;;;;12.24;52.57;94683.69;5049197;28;20240;-52
2023/04/10 00:52:13;;;;;;;4.80;4.40;;;;;;;12.25;52.37;94681.94;5048672;28;20202;-54
2023/04/10 00:54:40;;;;;;;4.90;4.47;;;;;;;12.24;52.27;94678.56;5048990;28;20641;-52
2023/04/10 00:57:07;;;;;;;4.73;4.30;;;;;;;12.25;52.06;94679.38;5048816;28;20655;-52
2023/04/10 00:59:35;;;;;;;4.70;4.20;;;;;;;12.24;51.89;94672.66;5049044;28;20250;-52
2023/04/10 01:02:02;;;;;;;4.70;4.30;;;;;;;12.26;51.94;94676.69;5049038;28;20244;-54
2023/04/10 01:04:30;;;;;;;5.37;4.33;;;;;;;12.27;51.72;94674.91;5048678;28;20190;-53
2023/04/10 01:07:07;;;;;;;4.47;4.03;;;;;;;12.28;51.56;94676.53;5049023;28;20209;-54
2023/04/10 01:09:41;;;;;;;4.90;4.50;;;;;;;12.27;51.54;94674.91;5048466;28;20226;-52
2023/04/10 01:12:20;;;;;;;4.43;4.03;;;;;;;12.26;51.52;94671.56;5028654;28;20195;-52
2023/04/10 01:14:55;;;;;;;4.40;4.00;;;;;;;12.25;51.63;94671.69;5029079;28;20227;-55
2023/04/10 01:17:28;;;;;;;4.53;4.13;;;;;;;12.25;51.61;94666.56;5028179;28;20236;-53
2023/04/10 01:20:09;;;;;;;4.33;4.00;;;;;;;12.25;51.78;94669.13;5028998;28;20192;-53
2023/04/10 01:22:49;;;;;;;4.57;4.17;;;;;;;12.23;51.87;94668.47;5028471;28;20199;-54
2023/04/10 01:25:41;;;;;;;4.10;3.70;;;;;;;12.23;52.04;94676.97;5028604;28;20223;-53
2023/04/10 01:28:24;;;;;;;4.67;4.23;;;;;;;12.23;51.89;94673.59;5028857;28;20195;-53
2023/04/10 01:30:57;;;;;;;4.10;3.70;;;;;;;12.23;51.94;94679.53;5028418;28;20201;-53
2023/04/10 01:33:29;;;;;;;4.10;3.80;;;;;;;12.22;52.29;94672.00;5028827;28;20212;-53
2023/04/10 01:35:59;;;;;;;4.20;3.90;;;;;;;12.21;52.46;94663.47;5028814;28;20242;-52
2023/04/10 01:38:30;;;;;;;4.50;4.10;;;;;;;12.20;52.53;94663.63;5028543;28;20192;-51
2023/04/10 01:41:00;;;;;;;4.10;3.70;;;;;;;12.22;52.61;94664.31;5028165;28;20286;-52
2023/04/10 01:43:29;;;;;;;4.60;4.20;;;;;;;12.21;52.53;94675.50;5028559;28;20694;-53
2023/04/10 01:45:57;;;;;;;4.53;4.13;;;;;;;12.21;52.70;94665.25;5028637;28;20640;-53
2023/04/10 01:48:25;;;;;;;4.47;4.07;;;;;;;12.20;52.72;94666.19;5028646;28;20199;-52
2023/04/10 01:50:54;;;;;;;4.63;4.23;;;;;;;12.19;52.78;94670.53;5031165;28;20195;-52
2023/04/10 01:53:21;;;;;;;4.13;3.77;;;;;;;12.19;52.87;94669.72;5038984;28;20222;-53
2023/04/10 01:55:49;;;;;;;4.47;4.07;;;;;;;12.21;52.84;94671.16;5048073;28;20195;-52
2023/04/10 01:58:16;;;;;;;4.47;4.07;;;;;;;12.22;52.73;94669.44;5048625;28;20202;-55
2023/04/10 02:00:43;;;;;;;4.43;3.93;;;;;;;12.22;52.50;94669.44;5048500;28;20602;-53
2023/04/10 02:03:12;;;;;;;4.20;3.80;;;;;;;12.23;52.52;94668.47;5046706;28;20245;-54
2023/04/10 02:05:52;;;;;;;3.87;3.53;;;;;;;12.23;52.70;94665.91;5031619;28;20204;-52
2023/04/10 02:08:24;;;;;;;4.17;3.77;;;;;;;12.21;52.77;94666.03;5028211;28;20195;-54
2023/04/10 02:10:56;;;;;;;4.00;3.70;;;;;;;12.21;52.48;94654.97;5028029;28;20245;-52
2023/04/10 02:13:26;;;;;;;4.60;4.20;;;;;;;12.22;52.63;94664.31;5029707;28;20211;-53
2023/04/10 02:15:55;;;;;;;4.30;4.00;;;;;;;12.21;52.84;94660.91;5041168;28;20234;-52
2023/04/10 02:18:25;;;;;;;4.00;3.70;;;;;;;12.17;52.66;94643.41;5048156;28;20179;-52
2023/04/10 02:20:53;;;;;;;4.33;4.00;;;;;;;12.22;52.65;94659.19;5048389;28;20183;-56
2023/04/10 02:23:21;;;;;;;4.40;3.97;;;;;;;12.20;52.88;94641.38;5049083;28;20202;-53
2023/04/10 02:25:47;;;;;;;3.77;3.47;;;;;;;12.20;52.70;94636.22;5037641;28;20415;-52
2023/04/10 02:28:14;;;;;;;4.30;3.90;;;;;;;12.22;52.45;94636.91;5048253;28;20249;-53
2023/04/10 02:30:41;;;;;;;4.47;4.07;;;;;;;12.23;52.66;94641.06;5051061;28;20205;-53
2023/04/10 02:33:08;;;;;;;4.20;3.87;;;;;;;12.21;52.69;94632.72;5051303;28;20195;-53
2023/04/10 02:35:36;;;;;;;4.50;3.50;;;;;;;12.00;52.45;94602.31;5049900;28;20209;-54
2023/04/10 02:38:03;;;;;;;4.70;4.20;;;;;;;12.21;52.48;94632.72;5033065;28;20188;-52
2023/04/10 02:40:29;;;;;;;3.77;3.47;;;;;;;12.20;52.63;94627.75;5031627;28;20203;-52
2023/04/10 02:42:56;;;;;;;3.93;3.63;;;;;;;12.21;52.56;94627.59;5031809;28;20632;-54
2023/04/10 02:45:23;;;;;;;4.50;4.10;;;;;;;12.22;52.64;94620.72;5032790;28;20307;-51
2023/04/10 02:47:50;;;;;;;5.07;4.40;;;;;;;12.19;52.39;94624.38;5031561;28;20263;-51
2023/04/10 02:50:17;;;;;;;3.93;3.63;;;;;;;12.20;52.55;94622.63;5033468;28;20678;-51
2023/04/10 02:52:45;;;;;;;4.90;4.00;;;;;;;12.18;52.50;94620.22;5051396;28;20571;-51
2023/04/10 02:55:12;;;;;;;3.97;3.63;;;;;;;12.17;52.77;94620.34;5051525;28;20260;-53
2023/04/10 02:57:39;;;;;;;4.17;3.77;;;;;;;12.15;52.83;94617.94;5039255;28;20524;-53
2023/04/10 03:00:07;;;;;;;4.33;3.93;;;;;;;12.14;52.71;94615.53;5050914;28;20201;-51
2023/04/10 03:02:34;;;;;;;4.33;3.93;;;;;;;12.14;52.80;94618.91;5044411;28;20184;-52
2023/04/10 03:05:02;;;;;;;4.40;3.80;;;;;;;12.12;52.75;94615.66;5031451;28;20195;-52
2023/04/10 03:07:28;;;;;;;4.67;4.00;;;;;;;12.11;52.77;94614.06;5031389;28;20200;-53
2023/04/10 03:09:56;;;;;;;3.90;3.60;;;;;;;12.10;52.64;94609.09;5031211;28;20655;-51
2023/04/10 03:12:23;;;;;;;3.97;3.57;;;;;;;12.06;52.74;94606.03;5030785;28;20198;-52
2023/04/10 03:14:50;;;;;;;4.00;3.67;;;;;;;12.05;52.91;94612.09;5038136;28;20211;-54
2023/04/10 03:17:17;;;;;;;5.80;3.97;;;;;;;12.04;52.99;94613.03;5051156;28;20194;-53
2023/04/10 03:19:43;;;;;;;4.77;4.07;;;;;;;12.02;53.00;94618.31;5050725;28;20183;-51
2023/04/10 03:22:10;;;;;;;4.43;4.03;;;;;;;12.00;53.13;94625.38;5050907;28;20195;-54
2023/04/10 03:24:38;;;;;;;5.37;4.23;;;;;;;11.96;53.24;94618.91;5050828;28;20278;-53
2023/04/10 03:27:07;;;;;;;4.67;4.23;;;;;;;11.94;53.23;94617.44;5049853;28;20195;-53
2023/04/10 03:29:33;;;;;;;4.87;4.47;;;;;;;11.89;53.38;94620.47;5050407;28;20195;-58
2023/04/10 03:32:00;;;;;;;5.57;3.90;;;;;;;11.88;53.57;94620.63;5050917;28;20244;-52
2023/04/10 03:34:27;;;;;;;4.67;4.20;;;;;;;11.85;53.50;94621.69;5050058;28;20207;-54
2023/04/10 03:36:54;;;;;;;4.17;3.87;;;;;;;11.78;53.55;94611.19;5049138;28;20187;-53
2023/04/10 03:39:20;;;;;;;4.20;3.80;;;;;;;11.81;53.66;94620.34;5034226;28;20196;-54
2023/04/10 03:41:47;;;;;;;4.57;4.17;;;;;;;11.79;53.76;94627.41;5048262;28;20228;-52
2023/04/10 03:44:16;;;;;;;5.23;4.50;;;;;;;11.76;53.80;94625.91;5050252;28;20613;-51
2023/04/10 03:46:42;;;;;;;4.10;3.80;;;;;;;11.75;53.98;94624.31;5050495;28;20187;-53
2023/04/10 03:49:09;;;;;;;4.67;4.23;;;;;;;11.55;53.93;94600.59;5049704;28;20257;-54
2023/04/10 03:51:36;;;;;;;4.70;4.30;;;;;;;11.72;54.13;94629.72;5049942;28;20655;-53
2023/04/10 03:54:03;;;;;;;5.30;4.80;;;;;;;11.71;54.15;94637.56;5050198;28;20221;-53
2023/04/10 03:56:30;;;;;;;5.63;5.00;;;;;;;11.69;54.51;94631.75;5049818;28;20195;-55
2023/04/10 03:58:56;;;;;;;6.40;5.27;;;;;;;11.69;54.31;94629.19;5047219;28;20183;-54
2023/04/10 04:01:25;;;;;;;6.53;4.70;;;;;;;11.72;54.78;94642.53;5030305;28;20191;-53
2023/04/10 04:03:51;;;;;;;5.60;5.10;;;;;;;11.73;54.72;94641.56;5030392;28;20188;-52
2023/04/10 04:06:18;;;;;;;5.33;4.87;;;;;;;11.71;54.82;94635.00;5030277;28;20184;-53
2023/04/10 04:08:45;;;;;;;5.00;4.60;;;;;;;11.80;54.88;94642.59;5031278;28;20282;-53
2023/04/10 04:11:12;;;;;;;6.03;5.00;;;;;;;11.84;54.78;94645.72;5044668;28;20195;-55
2023/04/10 04:13:39;;;;;;;5.47;4.97;;;;;;;11.88;54.75;94646.25;5050143;28;20224;-54
2023/04/10 04:16:07;;;;;;;7.60;5.60;;;;;;;11.85;54.90;94636.28;5049618;28;20233;-55
2023/04/10 04:18:35;;;;;;;6.20;5.60;;;;;;;11.94;55.02;94646.44;5050112;28;20202;-52
2023/04/10 04:21:01;;;;;;;6.40;4.93;;;;;;;11.98;54.96;94649.53;5039740;28;20566;-55
2023/04/10 04:23:28;;;;;;;5.20;4.67;;;;;;;11.99;55.06;94648.56;5030268;28;20571;-52
2023/04/10 04:25:55;;;;;;;5.40;4.90;;;;;;;12.03;55.18;94642.19;5029656;28;20218;-52
2023/04/10 04:28:22;;;;;;;5.33;4.83;;;;;;;12.12;55.10;94658.44;5029638;28;20183;-55
2023/04/10 04:30:49;;;;;;;6.47;5.30;;;;;;;12.19;54.85;94650.00;5034235;28;20211;-53
2023/04/10 04:33:16;;;;;;;6.27;5.67;;;;;;;12.25;54.83;94649.41;5044342;28;20360;-53
2023/04/10 04:35:44;;;;;;;6.33;5.73;;;;;;;12.38;54.77;94651.59;5049387;28;20280;-52
2023/04/10 04:38:11;;;;;;;6.73;6.03;;;;;;;12.47;54.65;94658.38;5048928;28;20610;-54
2023/04/10 04:40:38;;;;;;;6.23;5.53;;;;;;;12.54;54.58;94658.59;5047752;28;20528;-52
2023/04/10 04:43:04;;;;;;;5.83;5.23;;;;;;;12.67;54.45;94660.75;5038769;28;20187;-53
2023/04/10 04:45:31;;;;;;;6.03;5.50;;;;;;;12.78;54.34;94665.66;5040188;28;20249;-55
2023/04/10 04:47:58;;;;;;;6.50;5.80;;;;;;;12.91;54.17;94665.22;5048558;28;20273;-56
2023/04/10 04:50:25;;;;;;;5.90;5.10;;;;;;;13.04;53.78;94668.19;5045496;28;20194;-52
2023/04/10 04:52:53;;;;;;;5.97;5.23;;;;;;;13.17;53.63;94662.59;5028985;28;20312;-55
2023/04/10 04:55:20;;;;;;;7.20;5.53;;;;;;;13.32;53.54;94673.16;5029830;28;20220;-54
2023/04/10 04:57:46;;;;;;;5.80;5.00;;;;;;;13.45;53.29;94670.94;5029474;28;20200;-54
2023/04/10 05:00:14;;;;;;;6.90;5.47;;;;;;;13.59;53.12;94669.53;5029736;28;20222;-54
2023/04/10 05:02:41;;;;;;;6.23;5.63;;;;;;;13.72;52.72;94675.03;5030391;28;20238;-54
2023/04/10 05:05:08;;;;;;;6.33;5.73;;;;;;;13.84;52.77;94678.91;5029405;28;20192;-55
2023/04/10 05:07:35;;;;;;;5.97;5.07;;;;;;;13.96;52.47;94687.16;5029441;28;20257;-54
2023/04/10 05:10:03;;;;;;;7.03;5.00;;;;;;;14.09;52.42;94681.53;5028962;28;20266;-54
2023/04/10 05:12:30;;;;;;;5.93;4.97;;;;;;;14.23;52.12;94683.47;5030257;28;20203;-54
2023/04/10 05:14:57;;;;;;;5.67;5.17;;;;;;;14.41;51.95;94676.38;5029040;28;20218;-54
2023/04/10 05:17:24;;;;;;;5.97;5.37;;;;;;;14.63;51.42;94692.97;5029171;28;20206;-55
2023/04/10 05:19:51;;;;;;;6.77;5.33;;;;;;;14.91;51.22;94677.19;5028911;28;20651;-56
2023/04/10 05:22:17;;;;;;;4.97;4.33;;;;;;;15.27;56.61;94691.22;5030299;28;20565;-53
2023/04/10 05:24:44;;;;;;;6.50;3.60;;;;;;;15.78;63.91;94675.41;5029144;28;20176;-52
2023/04/10 05:27:13;;;;;;;5.43;4.00;;;;;;;16.36;61.19;94686.94;5029640;28;20268;-55
2023/04/10 05:29:39;;;;;;;7.13;3.93;;;;;;;16.78;59.55;94683.06;5028735;28;20587;-53
2023/04/10 05:32:06;;;;;;;9.97;3.63;;;;;;;17.27;58.07;94688.56;5029345;28;20196;-53
2023/04/10 05:34:33;;;;;;;5.97;4.13;;;;;;;17.72;56.59;94678.94;5030233;28;20214;-52
2023/04/10 05:37:00;;;;;;;6.77;3.83;;;;;;;18.22;55.40;94681.66;5028973;28;20195;-53
2023/04/10 05:39:26;;;;;;;6.03;3.57;;;;;;;18.75;54.19;94684.75;5029009;28;20196;-55
2023/04/10 05:41:53;;;;;;;8.13;3.97;;;;;;;19.26;52.94;94687.09;5028707;28;20206;-54
2023/04/10 05:44:21;;;;;;;3.77;3.47;;;;;;;19.77;51.92;94689.31;5030221;28;20690;-53
2023/04/10 05:46:48;;;;;;;5.37;3.13;;;;;;;20.14;50.89;94667.28;5028886;28;20184;-51
2023/04/10 05:49:16;;;;;;;4.37;3.63;;;;;;;20.72;49.94;94685.72;5029353;28;20273;-53
2023/04/10 05:51:43;;;;;;;4.40;3.50;;;;;;;21.17;48.96;94687.69;5028686;28;20278;-53
2023/04/10 05:54:10;;;;;;;4.70;3.60;;;;;;;21.37;48.22;94646.84;5029190;28;20203;-52
2023/04/10 05:56:37;;;;;;;5.60;4.13;;;;;;;22.11;47.41;94692.38;5047079;28;20198;-53
2023/04/10 05:59:03;;;;;;;9.80;3.33;;;;;;;22.58;46.46;94695.50;5048867;28;20202;-52
2023/04/10 06:01:32;;;;;;;3.45;3.15;;;;;;;22.91;45.82;94671.00;5047272;28;20206;-52
2023/04/10 06:03:59;;;;;;;5.35;3.67;;;;;;;23.46;44.98;94697.97;5044873;28;20203;-53
2023/04/10 06:06:26;;;;;;;4.72;4.20;;;;;;;23.84;44.26;94693.56;5034407;28;20195;-54
2023/04/10 06:08:53;;;;;;;4.75;3.65;;;;;;;24.29;43.78;94704.41;5041153;28;20702;-53
2023/04/10 06:11:19;;;;;;;4.07;3.67;;;;;;;24.73;43.36;94705.00;5044668;28;20191;-53
2023/04/10 06:13:46;;;;;;;5.05;3.80;;;;;;;25.08;42.93;94697.22;5042883;28;20208;-52
2023/04/10 06:16:15;;;;;;;6.75;4.00;;;;;;;25.37;42.20;94692.09;5046463;28;20241;-52
2023/04/10 06:18:43;;;;;;;4.20;3.85;;;;;;;25.57;41.77;94699.59;5043776;28;20286;-54
2023/04/10 06:21:10;;;;;;;5.85;3.88;;;;;;;25.58;42.11;94701.16;5040715;28;20544;-54
2023/04/10 06:23:37;;;;;;;3.75;3.45;;;;;;;25.46;42.13;94698.56;5038483;28;20198;-53
2023/04/10 06:26:04;;;;;;;4.97;4.25;;;;;;;25.30;42.44;94691.41;5039100;28;20249;-54
2023/04/10 06:28:30;;;;;;;3.90;3.58;;;;;;;25.18;42.34;94684.38;5047254;28;20199;-53
2023/04/10 06:30:57;;;;;;;4.38;3.63;;;;;;;25.12;42.31;94687.09;5048588;28;20195;-55
2023/04/10 06:33:24;;;;;;;4.40;3.90;;;;;;;24.91;41.90;94675.34;5037379;28;20335;-53
2023/04/10 06:35:52;;;;;;;4.88;4.38;;;;;;;24.95;42.15;94687.72;5042670;28;20353;-55
2023/04/10 06:38:19;;;;;;;4.00;3.70;;;;;;;24.83;41.80;94689.56;5035987;28;20188;-53
2023/04/10 06:40:46;;;;;;;6.47;4.65;;;;;;;24.59;42.12;94683.50;5042704;28;20203;-55
2023/04/10 06:43:13;;;;;;;6.60;4.45;;;;;;;24.43;42.06;94689.38;5033396;28;20196;-52
2023/04/10 06:45:40;;;;;;;6.57;4.25;;;;;;;24.17;41.93;94693.91;5039128;28;20202;-53
2023/04/10 06:48:07;;;;;;;5.00;4.60;;;;;;;23.89;41.84;94701.53;5040234;28;20191;-53
2023/04/10 06:50:33;;;;;;;5.03;4.35;;;;;;;23.49;41.45;94683.69;5042122;28;20191;-55
2023/04/10 06:53:02;;;;;;;6.20;4.60;;;;;;;23.29;41.61;94704.78;5038884;28;20203;-53
2023/04/10 06:55:29;;;;;;;4.90;4.43;;;;;;;22.97;41.19;94696.22;5039010;28;20211;-53
2023/04/10 06:57:56;;;;;;;5.38;4.90;;;;;;;22.67;41.77;94704.69;5042042;28;20195;-53
2023/04/10 07:00:23;;;;;;;5.07;4.60;;;;;;;22.39;41.79;94707.66;5035472;28;20196;-52
2023/04/10 07:02:50;;;;;;;6.72;4.35;;;;;;;22.14;41.85;94705.00;5037075;28;20606;-54
2023/04/10 07:05:17;;;;;;;6.32;5.35;;;;;;;21.89;42.07;94706.69;5038839;28;20211;-54
2023/04/10 07:07:46;;;;;;;5.13;4.57;;;;;;;21.64;42.06;94707.41;5039261;28;20581;-52
2023/04/10 07:10:14;;;;;;;4.95;4.55;;;;;;;21.38;42.19;94695.28;5037405;28;20267;-54
2023/04/10 07:12:41;;;;;;;6.00;5.40;;;;;;;21.17;42.34;94705.91;5041083;28;20257;-52
2023/04/10 07:15:11;;;;;;;5.38;4.90;;;;;;;20.94;42.39;94695.91;5036207;28;20207;-53
2023/04/10 07:17:38;;;;;;;6.05;5.35;;;;;;;20.52;42.56;94661.56;5034764;28;20184;-55
2023/04/10 07:20:06;;;;;;;9.15;5.25;;;;;;;20.50;42.64;94695.50;5037619;28;20221;-56
2023/04/10 07:22:33;;;;;;;5.60;5.10;;;;;;;20.27;42.74;94695.06;5031079;28;20180;-55
2023/04/10 07:24:59;;;;;;;5.33;4.83;;;;;;;20.07;42.83;94704.59;5036089;28;20200;-54
2023/04/10 07:27:28;;;;;;;5.13;4.70;;;;;;;19.87;43.10;94702.75;5036690;28;20211;-54
2023/04/10 07:29:55;;;;;;;6.53;5.87;;;;;;;19.69;43.20;94708.47;5039092;28;20187;-55
2023/04/10 07:32:22;;;;;;;8.13;5.20;;;;;;;19.49;43.30;94708.34;5043418;28;20192;-55
2023/04/10 07:34:49;;;;;;;6.73;5.80;;;;;;;19.33;43.31;94705.25;5037791;28;20917;-53
2023/04/10 07:37:16;;;;;;;5.70;5.20;;;;;;;19.18;43.50;94707.97;5035110;28;20328;-54
2023/04/10 07:39:43;;;;;;;6.90;5.70;;;;;;;19.09;43.38;94709.13;5036752;28;20208;-53
2023/04/10 07:42:11;;;;;;;5.70;5.20;;;;;;;19.05;43.52;94706.09;5035939;28;20642;-55
2023/04/10 07:44:39;;;;;;;6.00;5.40;;;;;;;19.05;43.58;94703.50;5040687;28;20220;-53
2023/04/10 07:47:06;;;;;;;5.60;4.90;;;;;;;19.11;43.25;94709.72;5039226;28;20195;-52
2023/04/10 07:49:32;;;;;;;8.77;5.97;;;;;;;19.23;43.10;94711.59;5032327;28;20191;-54
2023/04/10 07:52:00;;;;;;;7.40;5.33;;;;;;;19.30;42.98;94694.28;5038819;28;20236;-52
2023/04/10 07:54:27;;;;;;;6.87;5.10;;;;;;;19.12;42.77;94638.72;5032484;28;20207;-52
2023/04/10 07:56:54;;;;;;;6.80;5.77;;;;;;;19.57;42.57;94685.84;5039872;28;20219;-52
2023/04/10 07:59:20;;;;;;;6.10;5.50;;;;;;;19.84;42.44;94700.53;5036862;28;20544;-51
2023/04/10 08:01:48;;;;;;;6.77;6.07;;;;;;;20.02;42.25;94702.59;5031747;28;20198;-53
2023/04/10 08:04:15;;;;;;;5.67;5.07;;;;;;;20.12;42.21;94692.66;5037623;28;20545;-54
2023/04/10 08:06:42;;;;;;;6.63;5.40;;;;;;;20.17;42.09;94699.84;5035921;28;20192;-53
2023/04/10 08:09:09;;;;;;;6.57;5.83;;;;;;;20.20;42.13;94697.63;5034660;28;20318;-56
2023/04/10 08:11:37;;;;;;;6.60;6.00;;;;;;;20.17;42.11;94702.44;5038441;28;20175;-52
2023/04/10 08:14:05;;;;;;;5.77;5.27;;;;;;;20.09;42.27;94705.22;5032699;28;20290;-55
2023/04/10 08:16:33;;;;;;;6.13;5.53;;;;;;;20.00;42.28;94702.00;5038391;28;20208;-53
2023/04/10 08:19:02;;;;;;;6.47;5.80;;;;;;;19.87;42.29;94705.34;5040420;28;20180;-54
2023/04/10 08:21:31;;;;;;;6.37;5.77;;;;;;;19.80;42.27;94707.13;5040348;28;20187;-54
2023/04/10 08:23:59;;;;;;;7.00;5.80;;;;;;;19.72;42.43;94705.47;5036393;28;20265;-55
2023/04/10 08:26:27;;;;;;;6.43;5.83;;;;;;;19.70;42.41;94704.88;5042995;28;20187;-57
2023/04/10 08:28:55;;;;;;;6.50;5.77;;;;;;;19.69;42.30;94703.28;5034843;28;20194;-53
2023/04/10 08:31:24;;;;;;;6.23;5.30;;;;;;;19.73;42.30;94699.31;5037441;28;20756;-53
2023/04/10 08:33:51;;;;;;;6.33;5.27;;;;;;;19.79;42.20;94701.13;5038000;28;20558;-54
2023/04/10 08:36:20;;;;;;;5.67;5.17;;;;;;;19.87;42.07;94701.97;5037348;28;20338;-54
2023/04/10 08:38:47;;;;;;;6.57;5.40;;;;;;;19.88;42.17;94709.53;5041139;28;20935;-53
2023/04/10 08:41:15;;;;;;;10.53;6.37;;;;;;;19.84;42.16;94703.13;5038113;28;20195;-55
2023/04/10 08:43:44;;;;;;;6.40;5.80;;;;;;;19.81;42.16;94700.91;5035096;28;20226;-52
2023/04/10 08:46:11;;;;;;;6.03;5.53;;;;;;;19.77;42.15;94702.31;5034849;28;20293;-55
2023/04/10 08:48:39;;;;;;;6.23;5.63;;;;;;;19.75;41.97;94704.31;5037201;28;20284;-53
2023/04/10 08:51:09;;;;;;;5.97;5.40;;;;;;;19.80;42.04;94689.75;5038323;28;20210;-59
2023/04/10 08:53:40;;;;;;;6.47;5.87;;;;;;;19.80;41.99;94696.72;5036960;28;20184;-52
2023/04/10 08:56:07;;;;;;;6.50;5.60;;;;;;;19.82;41.94;94697.34;5034588;28;20211;-55
2023/04/10 08:58:35;;;;;;;7.97;5.90;;;;;;;19.84;41.77;94691.97;5034342;28;20222;-54
2023/04/10 09:01:02;;;;;;;7.03;5.70;;;;;;;19.82;41.85;94694.75;5034552;28;20956;-53
2023/04/10 09:03:29;;;;;;;7.33;5.83;;;;;;;19.80;41.92;94694.13;5037512;28;21111;-53
2023/04/10 09:05:58;;;;;;;5.80;5.27;;;;;;;19.78;41.84;94689.16;5033104;28;20199;-52
2023/04/10 09:08:25;;;;;;;7.13;5.87;;;;;;;19.79;41.59;94689.94;5035240;28;20238;-54
2023/04/10 09:10:53;;;;;;;6.03;5.50;;;;;;;19.82;41.78;94681.78;5039531;28;20187;-54
2023/04/10 09:13:35;;;;;;;6.70;5.97;;;;;;;19.83;41.82;94669.59;5035090;28;20610;-53
2023/04/10 09:16:03;;;;;;;5.93;5.33;;;;;;;19.87;41.65;94676.81;5034190;28;20258;-56
2023/04/10 09:18:45;;;;;;;5.93;5.40;;;;;;;19.98;41.54;94680.59;5037243;28;20240;-54
2023/04/10 09:21:15;;;;;;;6.40;5.80;;;;;;;20.07;41.54;94671.63;5034717;28;20617;-54
2023/04/10 09:23:43;;;;;;;6.33;5.73;;;;;;;20.04;41.38;94667.66;5034781;28;20921;-56
2023/04/10 09:26:25;;;;;;;6.07;5.57;;;;;;;20.12;41.38;94671.03;5033703;28;20184;-54
2023/04/10 09:29:03;;;;;;;7.97;5.87;;;;;;;20.08;41.24;94669.84;5036277;28;20195;-54
2023/04/10 09:31:34;;;;;;;6.43;5.60;;;;;;;20.02;41.25;94661.84;5037420;28;20195;-53
2023/04/10 09:34:09;;;;;;;7.57;5.53;;;;;;;19.99;41.37;94657.06;5036312;28;20200;-54
2023/04/10 09:36:36;;;;;;;6.10;5.53;;;;;;;19.75;41.37;94639.44;5037795;28;20214;-54
2023/04/10 09:39:04;;;;;;;7.40;5.57;;;;;;;19.85;41.26;94659.81;5043769;28;20210;-55
2023/04/10 09:41:32;;;;;;;6.30;5.70;;;;;;;19.78;41.25;94665.00;5042396;28;20736;-55
2023/04/10 09:44:10;;;;;;;6.73;6.13;;;;;;;19.76;41.22;94665.19;5037114;28;20218;-54
2023/04/10 09:46:37;;;;;;;5.57;5.07;;;;;;;19.78;41.20;94663.19;5041260;28;20200;-54
2023/04/10 09:49:06;;;;;;;7.27;5.73;;;;;;;19.83;41.01;94667.81;5039246;28;20195;-55
2023/04/10 09:51:34;;;;;;;5.97;5.27;;;;;;;19.83;41.17;94651.44;5041240;28;20203;-57
2023/04/10 09:54:01;;;;;;;5.83;5.33;;;;;;;19.89;40.95;94666.22;5045255;28;20647;-53
2023/04/10 09:56:30;;;;;;;5.77;5.27;;;;;;;19.77;40.81;94656.41;5031831;28;20250;-54
2023/04/10 09:59:00;;;;;;;6.23;5.57;;;;;;;19.78;41.03;94662.41;5042773;28;20214;-54
2023/04/10 10:01:29;;;;;;;5.70;5.13;;;;;;;19.76;41.09;94662.56;5037089;28;20670;-54
2023/04/10 10:03:57;;;;;;;7.03;5.70;;;;;;;19.76;41.21;94662.56;5044304;28;20187;-54
2023/04/10 10:06:25;;;;;;;5.40;4.90;;;;;;;19.82;40.94;94655.00;5034872;28;20215;-56
2023/04/10 10:08:52;;;;;;;5.83;5.33;;;;;;;19.86;40.77;94638.03;5034506;28;20310;-54
2023/04/10 10:11:23;;;;;;;6.30;5.70;;;;;;;20.15;40.50;94661.06;5038174;28;20191;-53
2023/04/10 10:13:55;;;;;;;7.00;5.37;;;;;;;20.32;40.48;94655.50;5040532;28;20253;-52
2023/04/10 10:16:30;;;;;;;5.53;4.80;;;;;;;20.40;40.28;94656.13;5038180;28;21014;-54
2023/04/10 10:19:04;;;;;;;6.23;5.63;;;;;;;20.03;39.99;94574.38;5042916;28;20198;-55
2023/04/10 10:21:33;;;;;;;6.27;5.67;;;;;;;20.53;39.96;94648.34;5036446;28;20639;-54
2023/04/10 10:24:02;;;;;;;5.30;4.80;;;;;;;20.50;39.79;94640.16;5040243;28;20278;-53
2023/04/10 10:26:33;;;;;;;5.27;4.77;;;;;;;20.51;39.88;94642.56;5038960;28;20599;-54
2023/04/10 10:29:04;;;;;;;5.70;5.20;;;;;;;20.46;39.68;94634.53;5039138;28;20697;-54
2023/04/10 10:31:35;;;;;;;6.37;5.77;;;;;;;20.38;39.91;94633.91;5038912;28;20195;-55
2023/04/10 10:34:04;;;;;;;6.07;5.20;;;;;;;20.26;39.84;94624.16;5036018;28;20191;-54
2023/04/10 10:36:31;;;;;;;5.73;5.10;;;;;;;20.22;40.07;94632.53;5040137;28;20273;-53
2023/04/10 10:39:21;;;;;;;6.00;5.50;;;;;;;20.16;39.88;94625.53;5043972;28;20286;-55
2023/04/10 10:41:55;;;;;;;5.43;4.50;;;;;;;20.21;40.03;94623.16;5043197;28;20195;-54
2023/04/10 10:44:30;;;;;;;5.93;5.33;;;;;;;20.30;39.79;94627.94;5039552;28;20193;-52
2023/04/10 10:47:07;;;;;;;5.63;5.13;;;;;;;20.38;39.87;94619.16;5037757;28;20191;-52
2023/04/10 10:49:56;;;;;;;5.30;4.80;;;;;;;20.40;39.76;94614.56;5038793;28;20253;-52
2023/04/10 10:52:44;;;;;;;5.20;4.70;;;;;;;20.25;39.37;94593.16;5041315;28;20192;-53
2023/04/10 10:55:38;;;;;;;5.27;4.77;;;;;;;20.28;39.78;94601.34;5043149;28;20202;-53
2023/04/10 10:58:06;;;;;;;5.77;5.07;;;;;;;19.79;39.94;94532.44;4987143;28;20267;-55
2023/04/10 11:01:09;;;;;;;5.30;4.80;;;;;;;20.16;39.94;94602.16;4985012;28;20200;-54
2023/04/10 11:03:37;;;;;;;5.80;5.30;;;;;;;20.13;39.72;94595.56;4917565;29;20204;-52
2023/04/10 11:06:07;;;;;;;5.63;5.17;;;;;;;20.13;39.75;94594.78;4927244;29;20199;-51
2023/04/10 11:08:43;;;;;;;8.77;4.93;;;;;;;20.17;39.75;94596.78;4920372;29;20219;-53
2023/04/10 11:11:14;;;;;;;5.37;4.87;;;;;;;20.26;39.56;94589.59;4922357;29;20192;-54
2023/04/10 11:13:42;;;;;;;6.30;5.30;;;;;;;20.34;39.50;94588.59;4929632;29;20191;-55
2023/04/10 11:16:10;;;;;;;5.20;4.70;;;;;;;20.42;39.51;94580.56;4928839;29;20195;-56
2023/04/10 11:19:04;;;;;;;5.80;5.20;;;;;;;20.63;39.14;94584.78;4924527;29;20199;-55
2023/04/10 11:21:31;;;;;;;6.03;5.33;;;;;;;20.78;38.89;94580.16;4929838;29;20289;-54
2023/04/10 11:24:06;;;;;;;5.40;4.90;;;;;;;21.01;38.72;94583.09;4917552;29;20392;-53
2023/04/10 11:26:40;;;;;;;5.00;4.60;;;;;;;21.14;38.49;94558.84;4927130;29;20207;-53
2023/04/10 11:29:32;;;;;;;5.70;5.17;;;;;;;21.19;38.38;94551.22;4924046;29;20776;-54
2023/04/10 11:32:00;;;;;;;5.27;4.87;;;;;;;21.18;38.42;94564.44;4926306;29;20206;-52
2023/04/10 11:34:29;;;;;;;5.63;5.13;;;;;;;20.89;38.43;94534.53;4964745;28;20296;-54
2023/04/10 11:36:56;;;;;;;6.60;5.13;;;;;;;20.98;38.68;94564.50;4976173;28;21014;-54
2023/04/10 11:39:24;;;;;;;5.60;5.10;;;;;;;20.87;38.64;94570.34;5006146;28;20199;-54
2023/04/10 11:41:52;;;;;;;8.50;5.70;;;;;;;20.55;38.79;94546.81;5042072;28;20708;-54